createdAt,value
2018-05-21T00:02:28.434Z,3.47
2018-05-21T00:05:32.457Z,3.00
2018-05-21T00:08:35.717Z,2.70
2018-05-21T00:11:39.388Z,2.63
2018-05-21T00:14:42.670Z,2.57
2018-05-21T00:17:46.709Z,2.47
2018-05-21T00:20:49.969Z,2.90
2018-05-21T00:23:53.303Z,3.07
2018-05-21T00:26:56.566Z,3.20
2018-05-21T00:29:59.832Z,2.47
2018-05-21T00:33:03.090Z,3.07
2018-05-21T00:36:06.362Z,3.40
2018-05-21T00:39:09.646Z,2.93
2018-05-21T00:42:12.908Z,3.10
2018-05-21T00:45:16.187Z,2.93
2018-05-21T00:48:19.536Z,2.87
2018-05-21T00:51:23.562Z,3.10
2018-05-21T00:54:26.826Z,3.00
2018-05-21T00:57:30.107Z,2.67
2018-05-21T01:00:33.355Z,2.93
2018-05-21T01:03:37.378Z,3.07
2018-05-21T01:06:41.406Z,3.00
2018-05-21T01:09:44.713Z,3.10
2018-05-21T01:12:47.970Z,3.00
2018-05-21T01:15:51.296Z,3.03
2018-05-21T01:18:54.531Z,2.87
2018-05-21T01:21:57.824Z,3.10
2018-05-21T01:25:01.837Z,3.23
2018-05-21T01:28:06.617Z,2.80
2018-05-21T01:31:09.885Z,3.20
2018-05-21T01:34:13.910Z,3.57
2018-05-21T01:37:17.959Z,3.67
2018-05-21T01:40:21.282Z,3.40
2018-05-21T01:43:24.526Z,3.10
2018-05-21T01:46:28.587Z,3.33
2018-05-21T01:49:31.841Z,2.97
2018-05-21T01:52:35.874Z,2.60
2018-05-21T01:55:39.918Z,3.00
2018-05-21T01:58:43.178Z,3.17
2018-05-21T02:01:46.434Z,2.70
2018-05-21T02:04:50.021Z,2.87
2018-05-21T02:07:54.075Z,3.20
2018-05-21T02:10:57.345Z,3.27
2018-05-21T02:14:00.630Z,3.50
2018-05-21T02:17:04.649Z,3.77
2018-05-21T02:20:08.818Z,3.53
2018-05-21T02:23:12.060Z,4.00
2018-05-21T02:26:15.391Z,3.07
2018-05-21T02:29:19.528Z,3.00
2018-05-21T02:32:23.397Z,2.97
2018-05-21T02:35:27.434Z,3.00
2018-05-21T02:38:30.684Z,3.43
2018-05-21T02:41:33.952Z,2.90
2018-05-21T02:44:37.186Z,3.33
2018-05-21T02:47:40.451Z,3.60
2018-05-21T02:50:44.481Z,2.87
2018-05-21T02:53:49.005Z,3.07
2018-05-21T02:56:53.080Z,3.00
2018-05-21T02:59:56.321Z,2.90
2018-05-21T03:03:00.364Z,3.07
2018-05-21T03:06:03.626Z,2.93
2018-05-21T03:09:06.865Z,3.07
2018-05-21T03:12:10.122Z,3.43
2018-05-21T03:15:14.169Z,3.57
2018-05-21T03:18:18.340Z,3.17
2018-05-21T03:21:21.588Z,3.40
2018-05-21T03:24:24.843Z,2.83
2018-05-21T03:27:28.093Z,2.60
2018-05-21T03:30:31.342Z,3.00
2018-05-21T03:33:34.592Z,2.70
2018-05-21T03:36:37.863Z,2.97
2018-05-21T03:39:41.096Z,3.40
2018-05-21T03:42:45.420Z,3.40
2018-05-21T03:45:48.688Z,3.50
2018-05-21T03:48:51.937Z,3.30
2018-05-21T03:51:56.021Z,3.23
2018-05-21T03:54:59.278Z,2.97
2018-05-21T03:58:03.424Z,3.03
2018-05-21T04:01:24.379Z,3.20
2018-05-21T04:04:27.647Z,3.23
2018-05-21T04:07:31.656Z,3.20
2018-05-21T04:10:35.677Z,2.97
2018-05-21T04:13:39.693Z,3.40
2018-05-21T04:16:42.989Z,3.40
2018-05-21T04:19:46.251Z,3.00
2018-05-21T04:22:50.269Z,3.17
2018-05-21T04:25:54.281Z,3.10
2018-05-21T04:28:58.318Z,2.73
2018-05-21T04:32:02.454Z,2.60
2018-05-21T04:35:06.533Z,2.83
2018-05-21T04:38:10.506Z,2.57
2018-05-21T04:41:13.785Z,2.83
2018-05-21T04:44:17.808Z,3.13
2018-05-21T04:47:21.096Z,3.43
2018-05-21T04:50:24.481Z,3.27
2018-05-21T04:53:27.729Z,3.50
2018-05-21T04:56:31.911Z,3.43
2018-05-21T04:59:35.206Z,3.50
2018-05-21T05:02:38.533Z,3.70
2018-05-21T05:05:42.551Z,3.15
2018-05-21T05:08:45.802Z,3.40
2018-05-21T05:11:49.058Z,3.47
2018-05-21T05:14:52.410Z,3.33
2018-05-21T05:17:55.688Z,3.97
2018-05-21T05:20:59.431Z,4.67
2018-05-21T05:24:03.459Z,3.73
2018-05-21T05:27:07.281Z,3.97
2018-05-21T05:30:10.530Z,4.47
2018-05-21T05:33:14.766Z,3.57
2018-05-21T05:36:18.027Z,4.93
2018-05-21T05:39:22.204Z,5.00
2018-05-21T05:42:25.590Z,4.90
2018-05-21T05:45:30.864Z,4.00
2018-05-21T05:48:34.124Z,3.87
2018-05-21T05:51:37.471Z,3.57
2018-05-21T05:54:41.451Z,4.30
2018-05-21T05:57:44.704Z,3.77
2018-05-21T06:00:47.972Z,3.97
2018-05-21T06:03:52.018Z,3.70
2018-05-21T06:06:55.291Z,3.53
2018-05-21T06:09:59.311Z,3.33
2018-05-21T06:13:03.513Z,3.70
2018-05-21T06:16:07.564Z,3.60
2018-05-21T06:19:10.951Z,3.33
2018-05-21T06:22:14.237Z,3.00
2018-05-21T06:25:18.288Z,3.37
2018-05-21T06:28:21.552Z,2.90
2018-05-21T06:31:24.862Z,3.10
2018-05-21T06:34:28.983Z,2.53
2018-05-21T06:37:32.212Z,2.83
2018-05-21T06:40:35.481Z,3.53
2018-05-21T06:43:38.730Z,3.33
2018-05-21T06:46:42.090Z,2.97
2018-05-21T06:49:46.572Z,2.87
2018-05-21T06:52:49.829Z,2.77
2018-05-21T06:55:53.114Z,2.60
2018-05-21T06:58:57.139Z,2.67
2018-05-21T07:02:01.192Z,3.00
2018-05-21T07:05:04.484Z,2.80
2018-05-21T07:08:07.749Z,2.60
2018-05-21T07:11:11.183Z,2.90
2018-05-21T07:14:15.209Z,2.77
2018-05-21T07:17:18.506Z,2.87
2018-05-21T07:20:22.627Z,3.00
2018-05-21T07:23:26.674Z,2.80
2018-05-21T07:26:30.153Z,3.05
2018-05-21T07:29:33.450Z,2.63
2018-05-21T07:32:38.135Z,2.73
2018-05-21T07:35:41.417Z,2.60
2018-05-21T07:38:44.699Z,2.67
2018-05-21T07:41:48.069Z,2.70
2018-05-21T07:44:51.414Z,3.30
2018-05-21T07:47:54.621Z,2.70
2018-05-21T07:50:57.928Z,2.77
2018-05-21T07:54:02.151Z,3.20
2018-05-21T07:57:06.182Z,3.17
2018-05-21T08:00:09.458Z,3.03
2018-05-21T08:03:12.755Z,3.53
2018-05-21T08:06:16.088Z,3.03
2018-05-21T08:09:20.127Z,2.53
2018-05-21T08:12:24.170Z,2.53
2018-05-21T08:15:27.458Z,3.17
2018-05-21T08:18:30.713Z,2.67
2018-05-21T08:21:34.024Z,2.80
2018-05-21T08:24:37.289Z,2.70
2018-05-21T08:27:40.553Z,2.50
2018-05-21T08:30:44.573Z,2.30
2018-05-21T08:33:48.672Z,3.00
2018-05-21T08:36:52.000Z,2.70
2018-05-21T08:39:55.254Z,2.73
2018-05-21T08:42:58.610Z,2.67
2018-05-21T08:46:01.869Z,3.28
2018-05-21T08:49:05.134Z,2.60
2018-05-21T08:52:08.386Z,2.43
2018-05-21T08:55:12.484Z,2.27
2018-05-21T08:58:16.434Z,2.60
2018-05-21T09:01:20.535Z,2.30
2018-05-21T09:04:23.815Z,2.70
2018-05-21T09:07:27.173Z,2.00
2018-05-21T09:10:31.062Z,1.98
2018-05-21T09:13:34.341Z,2.10
2018-05-21T09:16:37.834Z,2.23
2018-05-21T09:19:41.929Z,2.37
2018-05-21T09:22:46.061Z,2.10
2018-05-21T09:25:50.528Z,2.13
2018-05-21T09:28:53.827Z,1.90
2018-05-21T09:31:57.203Z,1.97
2018-05-21T09:35:01.229Z,2.10
2018-05-21T09:38:04.521Z,2.23
2018-05-21T09:41:08.649Z,2.37
2018-05-21T09:44:12.687Z,2.20
2018-05-21T09:47:15.947Z,2.10
2018-05-21T09:50:19.240Z,2.10
2018-05-21T09:53:22.526Z,2.10
2018-05-21T09:56:26.559Z,2.03
2018-05-21T09:59:30.588Z,2.00
2018-05-21T10:02:34.616Z,1.90
2018-05-21T10:05:37.938Z,1.60
2018-05-21T10:08:41.225Z,2.07
2018-05-21T10:11:44.489Z,2.03
2018-05-21T10:14:47.814Z,1.70
2018-05-21T10:17:51.896Z,1.80
2018-05-21T10:20:55.720Z,2.03
2018-05-21T10:23:58.973Z,1.83
2018-05-21T10:27:02.241Z,2.20
2018-05-21T10:30:05.514Z,2.17
2018-05-21T10:33:08.930Z,2.47
2018-05-21T10:36:12.349Z,1.90
2018-05-21T10:39:15.601Z,1.90
2018-05-21T10:42:18.934Z,1.90
2018-05-21T10:45:22.182Z,1.80
2018-05-21T10:48:26.205Z,2.00
2018-05-21T10:51:30.321Z,1.80
2018-05-21T10:54:33.705Z,1.77
2018-05-21T10:57:37.010Z,1.75
2018-05-21T11:00:41.820Z,1.63
2018-05-21T11:03:45.106Z,1.63
2018-05-21T11:06:48.389Z,2.20
2018-05-21T11:09:52.426Z,1.70
2018-05-21T11:12:56.558Z,1.40
2018-05-21T11:15:59.903Z,1.62
2018-05-21T11:19:03.173Z,1.80
2018-05-21T11:22:06.493Z,1.53
2018-05-21T11:25:09.753Z,1.83
2018-05-21T11:28:13.241Z,1.50
2018-05-21T11:31:17.268Z,1.57
2018-05-21T11:34:20.528Z,1.83
2018-05-21T11:37:23.781Z,1.67
2018-05-21T11:40:27.042Z,1.27
2018-05-21T11:43:31.924Z,1.30
2018-05-21T11:46:35.258Z,1.53
2018-05-21T11:49:39.836Z,1.53
2018-05-21T11:52:46.084Z,1.63
2018-05-21T11:55:50.120Z,1.53
2018-05-21T11:58:53.396Z,1.50
2018-05-21T12:01:57.554Z,1.30
2018-05-21T12:05:00.835Z,1.10
2018-05-21T12:08:05.115Z,1.52
2018-05-21T12:11:08.415Z,1.20
2018-05-21T12:14:11.789Z,1.60
2018-05-21T12:17:15.089Z,1.77
2018-05-21T12:20:18.347Z,1.53
2018-05-21T12:23:21.611Z,1.50
2018-05-21T12:26:24.883Z,1.53
2018-05-21T12:29:28.277Z,1.40
2018-05-21T12:32:31.565Z,1.60
2018-05-21T12:35:35.022Z,1.23
2018-05-21T12:38:38.282Z,1.30
2018-05-21T12:41:42.322Z,1.43
2018-05-21T12:44:45.597Z,1.13
2018-05-21T12:47:49.725Z,1.30
2018-05-21T12:50:53.767Z,1.80
2018-05-21T12:53:57.031Z,1.63
2018-05-21T12:57:01.070Z,1.63
2018-05-21T13:00:04.387Z,1.60
2018-05-21T13:03:07.644Z,1.80
2018-05-21T13:06:11.006Z,1.90
2018-05-21T13:09:14.375Z,1.60
2018-05-21T13:12:17.634Z,1.80
2018-05-21T13:15:21.683Z,1.90
2018-05-21T13:18:25.680Z,1.90
2018-05-21T13:21:29.751Z,1.63
2018-05-21T13:24:33.048Z,1.37
2018-05-21T13:27:36.301Z,1.53
2018-05-21T13:30:40.339Z,1.70
2018-05-21T13:33:43.599Z,1.80
2018-05-21T13:36:46.868Z,1.57
2018-05-21T13:39:50.200Z,1.63
2018-05-21T13:42:53.548Z,1.90
2018-05-21T13:45:56.833Z,1.93
2018-05-21T13:49:00.890Z,1.60
2018-05-21T13:52:04.198Z,1.57
2018-05-21T13:55:07.510Z,1.50
2018-05-21T13:58:10.805Z,1.67
2018-05-21T14:01:14.151Z,1.95
2018-05-21T14:04:18.250Z,2.00
2018-05-21T14:07:21.498Z,1.67
2018-05-21T14:10:24.766Z,2.10
2018-05-21T14:13:28.883Z,1.90
2018-05-21T14:16:32.917Z,1.80
2018-05-21T14:19:36.165Z,1.77
2018-05-21T14:22:39.838Z,2.00
2018-05-21T14:25:43.103Z,2.23
2018-05-21T14:28:46.384Z,2.30
2018-05-21T14:31:49.640Z,1.70
2018-05-21T14:34:52.909Z,1.73
2018-05-21T14:37:56.205Z,1.67
2018-05-21T14:41:00.737Z,1.90
2018-05-21T14:44:06.283Z,1.40
2018-05-21T14:47:09.555Z,1.50
2018-05-21T14:50:12.997Z,1.60
2018-05-21T14:53:17.017Z,1.37
2018-05-21T14:56:21.099Z,1.47
2018-05-21T14:59:24.345Z,0.90
2018-05-21T15:02:29.277Z,1.00
2018-05-21T15:05:33.308Z,0.80
2018-05-21T15:08:36.560Z,1.00
2018-05-21T15:11:39.834Z,0.90
2018-05-21T15:14:43.091Z,1.00
2018-05-21T15:17:47.244Z,1.17
2018-05-21T15:20:50.553Z,1.30
2018-05-21T15:23:53.878Z,1.10
2018-05-21T15:26:57.968Z,1.50
2018-05-21T15:30:01.243Z,1.60
2018-05-21T15:33:04.558Z,1.77
2018-05-21T15:36:07.904Z,1.60
2018-05-21T15:39:11.950Z,2.00
2018-05-21T15:42:16.002Z,2.67
2018-05-21T15:45:19.259Z,1.90
2018-05-21T15:48:23.561Z,2.07
2018-05-21T15:51:27.344Z,2.00
2018-05-21T15:54:30.704Z,1.80
2018-05-21T15:57:34.141Z,2.20
2018-05-21T16:00:37.418Z,2.10
2018-05-21T16:03:40.723Z,2.00
2018-05-21T16:06:44.113Z,2.10
2018-05-21T16:09:47.499Z,2.10
2018-05-21T16:12:51.522Z,2.17
2018-05-21T16:15:54.811Z,2.10
2018-05-21T16:18:58.836Z,2.10
2018-05-21T16:22:02.392Z,1.40
2018-05-21T16:25:05.743Z,2.23
2018-05-21T16:28:09.089Z,4.23
2018-05-21T16:31:12.397Z,3.90
2018-05-21T16:34:16.364Z,2.50
2018-05-21T16:37:19.802Z,1.97
2018-05-21T16:40:23.073Z,2.50
2018-05-21T16:43:26.397Z,1.80
2018-05-21T16:46:29.653Z,1.87
2018-05-21T16:49:33.893Z,2.17
2018-05-21T16:52:37.198Z,2.10
2018-05-21T16:55:40.536Z,1.67
2018-05-21T16:58:44.792Z,2.03
2018-05-21T17:01:48.821Z,2.10
2018-05-21T17:04:52.838Z,2.57
2018-05-21T17:07:56.139Z,2.40
2018-05-21T17:11:00.285Z,2.13
2018-05-21T17:14:03.691Z,2.63
2018-05-21T17:17:06.887Z,2.00
2018-05-21T17:20:10.268Z,2.10
2018-05-21T17:23:13.569Z,2.57
2018-05-21T17:26:17.014Z,2.80
2018-05-21T17:29:20.275Z,2.60
2018-05-21T17:32:23.528Z,2.67
2018-05-21T17:35:26.888Z,2.57
2018-05-21T17:38:30.205Z,2.17
2018-05-21T17:41:33.549Z,2.23
2018-05-21T17:44:37.639Z,1.80
2018-05-21T17:47:41.989Z,2.05
2018-05-21T17:50:46.008Z,1.63
2018-05-21T17:53:49.279Z,1.70
2018-05-21T17:56:53.313Z,1.20
2018-05-21T17:59:57.343Z,1.70
2018-05-21T18:03:00.602Z,1.57
2018-05-21T18:06:03.975Z,1.40
2018-05-21T18:09:07.246Z,1.47
2018-05-21T18:12:10.519Z,1.57
2018-05-21T18:15:14.660Z,1.30
2018-05-21T18:18:18.153Z,1.30
2018-05-21T18:21:21.506Z,1.50
2018-05-21T18:24:25.638Z,1.73
2018-05-21T18:27:28.967Z,2.07
2018-05-21T18:30:33.090Z,2.33
2018-05-21T18:33:36.738Z,2.33
2018-05-21T18:36:40.066Z,3.00
2018-05-21T18:39:43.318Z,3.13
2018-05-21T18:42:46.603Z,5.53
2018-05-21T18:45:49.891Z,21.43
2018-05-21T18:48:53.923Z,12.50
2018-05-21T18:51:57.209Z,3.58
2018-05-21T18:55:00.477Z,3.30
2018-05-21T18:58:03.778Z,2.63
2018-05-21T19:01:07.822Z,2.22
2018-05-21T19:04:11.871Z,2.57
2018-05-21T19:07:15.131Z,2.62
2018-05-21T19:10:18.755Z,2.00
2018-05-21T19:13:22.877Z,2.60
2018-05-21T19:16:26.927Z,3.30
2018-05-21T19:19:30.205Z,5.17
2018-05-21T19:22:34.247Z,5.13
2018-05-21T19:25:37.540Z,4.97
2018-05-21T19:28:41.029Z,4.00
2018-05-21T19:31:45.063Z,3.53
2018-05-21T19:34:48.327Z,2.93
2018-05-21T19:37:53.170Z,3.20
2018-05-21T19:40:56.493Z,3.00
2018-05-21T19:44:00.576Z,3.20
2018-05-21T19:47:03.840Z,2.47
2018-05-21T19:50:07.257Z,3.37
2018-05-21T19:53:10.563Z,4.07
2018-05-21T19:56:13.813Z,3.60
2018-05-21T19:59:17.846Z,3.47
2018-05-21T20:02:21.869Z,2.85
2018-05-21T20:05:25.374Z,3.50
2018-05-21T20:08:28.706Z,3.20
2018-05-21T20:11:32.262Z,3.63
2018-05-21T20:14:36.278Z,3.43
2018-05-21T20:17:39.544Z,4.53
2018-05-21T20:20:43.964Z,11.07
2018-05-21T20:23:47.226Z,5.23
2018-05-21T20:26:50.517Z,6.17
2018-05-21T20:29:53.802Z,3.97
2018-05-21T20:32:57.831Z,3.40
2018-05-21T20:36:01.104Z,4.12
2018-05-21T20:39:06.746Z,5.83
2018-05-21T20:42:11.100Z,5.33
2018-05-21T20:45:14.380Z,4.97
2018-05-21T20:48:17.896Z,3.53
2018-05-21T20:51:21.176Z,3.33
2018-05-21T20:54:24.493Z,3.33
2018-05-21T20:57:28.679Z,3.03
2018-05-21T21:00:32.238Z,3.00
2018-05-21T21:03:35.521Z,3.40
2018-05-21T21:06:38.772Z,2.90
2018-05-21T21:09:42.211Z,2.47
2018-05-21T21:12:46.119Z,2.40
2018-05-21T21:15:54.324Z,3.00
2018-05-21T21:18:57.597Z,3.07
2018-05-21T21:22:00.886Z,3.33
2018-05-21T21:25:04.158Z,3.10
2018-05-21T21:28:07.416Z,2.97
2018-05-21T21:31:10.832Z,3.13
2018-05-21T21:34:14.861Z,2.97
2018-05-21T21:37:18.109Z,2.87
2018-05-21T21:40:21.369Z,2.37
2018-05-21T21:43:24.639Z,2.27
2018-05-21T21:46:27.949Z,2.27
2018-05-21T21:49:31.242Z,2.83
2018-05-21T21:52:34.536Z,2.10
2018-05-21T21:55:38.590Z,2.30
2018-05-21T21:58:41.833Z,2.57
2018-05-21T22:01:45.897Z,2.30
2018-05-21T22:04:49.145Z,2.30
2018-05-21T22:07:53.183Z,2.23
2018-05-21T22:10:56.459Z,3.03
2018-05-21T22:14:00.485Z,2.93
2018-05-21T22:17:03.778Z,2.63
2018-05-21T22:20:07.796Z,2.90
2018-05-21T22:23:11.824Z,2.67
2018-05-21T22:26:15.164Z,2.83
2018-05-21T22:29:18.424Z,2.30
2018-05-21T22:32:21.668Z,3.43
2018-05-21T22:35:25.707Z,2.70
2018-05-21T22:38:29.820Z,2.10
2018-05-21T22:41:33.906Z,2.40
2018-05-21T22:44:41.996Z,1.97
2018-05-21T22:47:45.265Z,2.10
2018-05-21T22:50:48.557Z,2.50
2018-05-21T22:53:52.611Z,2.07
2018-05-21T22:56:55.990Z,2.30
2018-05-21T22:59:59.253Z,1.90
2018-05-21T23:03:02.519Z,2.20
2018-05-21T23:06:05.797Z,2.33
2018-05-21T23:09:09.055Z,2.50
2018-05-21T23:12:13.178Z,2.20
2018-05-21T23:15:16.440Z,1.83
2018-05-21T23:18:19.727Z,1.87
2018-05-21T23:21:22.985Z,2.13
2018-05-21T23:24:26.234Z,2.47
2018-05-21T23:27:29.522Z,2.33
2018-05-21T23:30:32.861Z,2.27
2018-05-21T23:33:36.877Z,2.20
2018-05-21T23:36:40.906Z,1.87
2018-05-21T23:39:44.188Z,2.37
2018-05-21T23:42:48.201Z,2.57
2018-05-21T23:45:51.616Z,2.30
2018-05-21T23:48:54.868Z,1.93
2018-05-21T23:51:58.125Z,1.90
2018-05-21T23:55:01.398Z,2.00
2018-05-21T23:58:04.658Z,2.10
